サルヴァドール の空港の天気 - METARとTAF

サルヴァドール国際空港 ( SBSV / SSA ) - ブラジル バイーア州サルヴァドール
飛行場実況気象(Metar)
観測時間01/17 07:00 BRT (01/17 10:00 UTC)
風向・風速東 5m/s
視程10km以上
天気現象周辺でしゅう雨
全天の4割程度の雲 雲底高度 700m
少しの雲 雲底高度 760m
気温27℃
湿度74%
気圧1012hPa
METARSBSV 171000Z 09010KT 9999 VCSH SCT023 FEW025TCU 27/22 Q1012
過去の天気等 Google飛行場航空写真 Wunderground天気予報

過去48時間のMETAR

飛行場予報(TAF)
発表時間: 1/16 17:34 BRT (1/16 20:34 UTC)
予報対象時間: 16日21時 BRT ~ 17日21時 BRT
風向・風速東南東 5m/s
視程8000m
全天の4割程度の雲 雲底高度 610m
17日0時 BRT ~ 17日2時 BRT に徐々に
風向・風速北東 3m/s
17日4時 BRT ~ 17日6時 BRT に徐々に
天気現象
17日8時 BRT ~ 17日10時 BRT に徐々に
天気現象運行に影響にある天気現象が終了
少しの雲 雲底高度 700m
17日12時 BRT から 確率 30% で
天気現象
TAF SBSV 162034Z 1700/1724 12010KT 8000 SCT020 TN25/1706Z TX28/1718Z
BECMG 1703/1705 04005KT
BECMG 1707/1709 RA
BECMG 1711/1713 NSW FEW023
PROB30 1715/1717 RA RMK PHG